Time;durP1;ratioP1;P1;durP2;ratioP2;P2;SDS_P1;SDS_P2;PMS_P1;PMS_P2;Temp;Humidity;BMP_temperature;BMP_pressure;BME280_temperature;BME280_humidity;BME280_pressure;Samples;Min_cycle;Max_cycle;Signal;HPM_P1;HPM_P2
2021/10/24 00:00:10;;;;;;;7.43;3.10;;;;;;;5.40;74.21;101647.44;5016459;28;20050;-66
2021/10/24 00:02:39;;;;;;;7.80;2.97;;;;;;;5.61;73.03;101643.59;5015700;28;20045;-67
2021/10/24 00:05:09;;;;;;;7.55;2.95;;;;;;;5.81;71.42;101643.25;5016201;28;20069;-67
2021/10/24 00:07:37;;;;;;;10.63;2.90;;;;;;;5.74;71.79;101643.34;5015576;28;20045;-67
2021/10/24 00:10:07;;;;;;;6.38;2.90;;;;;;;5.80;71.16;101642.38;5016104;28;20057;-67
2021/10/24 00:12:36;;;;;;;6.97;2.88;;;;;;;5.63;71.61;101637.38;5015739;28;20520;-67
2021/10/24 00:15:05;;;;;;;6.60;2.83;;;;;;;5.64;72.00;101638.25;5016014;28;20046;-67
2021/10/24 00:17:35;;;;;;;10.38;3.05;;;;;;;5.69;71.63;101641.66;5015620;28;20045;-67
2021/10/24 00:20:04;;;;;;;8.57;2.90;;;;;;;5.68;71.72;101642.56;5015804;28;20045;-67
2021/10/24 00:22:33;;;;;;;5.70;2.55;;;;;;;5.85;70.63;101636.97;5016030;28;20132;-67
2021/10/24 00:25:01;;;;;;;9.45;2.97;;;;;;;5.85;70.43;101643.13;5016109;28;20049;-67
2021/10/24 00:27:30;;;;;;;7.38;2.92;;;;;;;5.63;71.91;101647.09;4997941;28;20057;-67
2021/10/24 00:29:58;;;;;;;8.68;3.38;;;;;;;5.73;71.52;101646.88;5015687;28;20128;-67
2021/10/24 00:32:26;;;;;;;6.95;2.80;;;;;;;5.56;72.68;101634.84;5015096;28;20440;-70
2021/10/24 00:34:58;;;;;;;9.13;3.00;;;;;;;5.42;73.37;101637.75;5015664;28;20052;-67
2021/10/24 00:37:26;;;;;;;8.13;2.78;;;;;;;5.30;74.00;101630.84;5015351;28;20061;-68
2021/10/24 00:39:54;;;;;;;6.32;2.67;;;;;;;5.16;75.06;101636.38;5015493;28;20042;-66
2021/10/24 00:42:48;;;;;;;8.48;3.50;;;;;;;5.23;75.43;101638.94;5015241;28;20056;-67
2021/10/24 00:45:16;;;;;;;;;;;;;;;5.03;76.46;101642.78;5015477;28;20084;-66
2021/10/24 00:47:45;;;;;;;8.40;3.70;;;;;;;5.06;76.58;101640.06;5015026;28;20329;-67
2021/10/24 00:50:15;;;;;;;14.25;4.90;;;;;;;4.99;77.30;101641.06;5015102;28;20395;-67
2021/10/24 00:52:44;;;;;;;10.82;4.45;;;;;;;5.06;76.66;101637.44;5015074;28;20133;-68
2021/10/24 00:55:13;;;;;;;11.40;4.47;;;;;;;5.01;77.58;101641.91;5015521;28;20529;-67
2021/10/24 00:57:42;;;;;;;12.43;4.18;;;;;;;4.85;78.25;101654.50;5014442;28;20046;-68
2021/10/24 01:00:13;;;;;;;11.07;4.88;;;;;;;4.88;78.22;101643.00;5015030;28;20042;-67
2021/10/24 01:02:42;;;;;;;13.82;4.72;;;;;;;4.71;79.62;101639.72;5014810;28;20101;-67
2021/10/24 01:05:11;;;;;;;10.00;4.53;;;;;;;4.65;81.10;101632.75;5015024;28;20042;-67
2021/10/24 01:07:44;;;;;;;12.05;4.82;;;;;;;4.57;81.58;101643.44;5014301;28;20049;-68
2021/10/24 01:10:15;;;;;;;9.40;4.93;;;;;;;4.50;81.90;101633.81;5015057;28;20038;-68
2021/10/24 01:12:46;;;;;;;10.32;5.00;;;;;;;4.61;81.62;101652.19;5014674;28;20034;-68
2021/10/24 01:15:15;;;;;;;10.05;4.45;;;;;;;4.59;81.53;101644.28;5015018;28;20066;-68
2021/10/24 01:17:44;;;;;;;9.40;4.22;;;;;;;4.64;81.37;101651.28;5014503;28;20046;-68
2021/10/24 01:20:17;;;;;;;10.05;4.13;;;;;;;4.63;81.41;101646.88;4997160;28;20058;-68
2021/10/24 01:22:47;;;;;;;10.93;4.78;;;;;;;4.56;81.59;101654.03;5014231;28;20447;-68
2021/10/24 01:25:15;;;;;;;11.27;4.45;;;;;;;4.52;82.04;101652.28;5014894;28;20045;-67
2021/10/24 01:27:44;;;;;;;12.55;4.72;;;;;;;4.41;82.59;101660.38;5013996;28;20046;-69
2021/10/24 01:30:13;;;;;;;12.70;5.10;;;;;;;4.42;82.57;101655.94;5014657;28;20545;-67
2021/10/24 01:32:42;;;;;;;11.25;4.82;;;;;;;4.41;82.53;101663.00;5014240;28;20048;-68
2021/10/24 01:35:10;;;;;;;10.60;5.15;;;;;;;4.34;82.64;101668.38;5014136;28;20052;-67
2021/10/24 01:37:40;;;;;;;11.57;5.45;;;;;;;4.21;84.42;101657.97;5013847;28;20061;-66
2021/10/24 01:40:13;;;;;;;12.77;5.25;;;;;;;4.10;85.96;101654.56;5014458;28;20445;-65
2021/10/24 01:42:53;;;;;;;10.40;5.47;;;;;;;3.96;87.04;101661.78;5014145;28;20046;-65
2021/10/24 01:45:24;;;;;;;12.30;5.80;;;;;;;4.00;87.53;101664.38;5014250;28;20112;-66
2021/10/24 01:47:52;;;;;;;8.90;4.97;;;;;;;3.89;88.26;101665.38;5013833;28;20070;-66
2021/10/24 01:50:21;;;;;;;10.90;5.38;;;;;;;3.94;88.51;101669.69;5014032;28;20041;-67
2021/10/24 01:52:50;;;;;;;11.45;5.60;;;;;;;4.06;87.37;101663.44;5013859;28;20046;-67
2021/10/24 01:55:20;;;;;;;11.93;5.25;;;;;;;3.83;88.09;101670.69;5014383;28;20045;-68
2021/10/24 01:57:55;;;;;;;12.00;5.43;;;;;;;3.73;89.04;101675.19;5014003;28;20054;-68
2021/10/24 02:00:23;;;;;;;11.27;5.07;;;;;;;3.62;90.59;101680.56;5014087;28;20069;-68
2021/10/24 02:02:53;;;;;;;10.30;4.55;;;;;;;3.55;90.84;101680.63;5013849;28;20529;-67
2021/10/24 02:05:21;;;;;;;8.93;4.28;;;;;;;3.56;91.23;101674.47;5013988;28;20041;-65
2021/10/24 02:07:50;;;;;;;9.10;4.63;;;;;;;3.56;91.33;101688.53;5013662;28;20052;-67
2021/10/24 02:10:19;;;;;;;7.75;4.05;;;;;;;3.56;91.52;101683.25;5012991;28;20140;-68
2021/10/24 02:12:48;;;;;;;12.27;5.18;;;;;;;3.60;91.49;101678.84;5013537;28;20052;-69
2021/10/24 02:15:17;;;;;;;9.23;4.03;;;;;;;3.60;91.45;101674.44;5013756;28;20050;-67
2021/10/24 02:17:45;;;;;;;15.38;4.88;;;;;;;3.61;91.25;101676.19;5013821;28;20038;-67
2021/10/24 02:20:15;;;;;;;12.32;4.88;;;;;;;3.57;91.35;101686.75;5013813;28;20042;-68
2021/10/24 02:22:44;;;;;;;9.93;4.60;;;;;;;3.49;91.67;101680.72;5013386;28;20042;-67
2021/10/24 02:25:15;;;;;;;9.55;4.85;;;;;;;3.45;92.02;101690.38;5014117;28;20472;-67
2021/10/24 02:27:45;;;;;;;9.48;4.13;;;;;;;3.43;92.22;101686.91;5013130;28;20056;-67
2021/10/24 02:30:14;;;;;;;10.27;4.90;;;;;;;3.40;93.16;101692.22;5013670;28;20096;-68
2021/10/24 02:32:44;;;;;;;11.93;4.97;;;;;;;3.35;92.93;101679.03;5013065;28;20096;-68
2021/10/24 02:35:14;;;;;;;12.63;5.10;;;;;;;3.31;93.71;101679.97;5013579;28;20046;-67
2021/10/24 02:37:44;;;;;;;9.75;4.47;;;;;;;3.31;94.05;101682.59;5013273;28;20069;-68
2021/10/24 02:40:13;;;;;;;10.82;4.97;;;;;;;3.22;94.69;101682.66;5013208;28;20042;-68
2021/10/24 02:42:42;;;;;;;13.85;4.97;;;;;;;3.15;95.48;101689.72;5013204;28;20048;-68
2021/10/24 02:45:11;;;;;;;12.07;4.82;;;;;;;3.15;95.19;101680.94;5013293;28;20050;-68
2021/10/24 02:47:40;;;;;;;11.95;4.82;;;;;;;3.16;96.33;101680.06;5013226;28;20045;-68
2021/10/24 02:50:11;;;;;;;11.32;5.00;;;;;;;3.12;96.71;101691.53;5015197;28;20042;-68
2021/10/24 02:52:40;;;;;;;9.55;5.10;;;;;;;3.01;97.51;101686.31;4995905;28;20129;-68
2021/10/24 02:55:09;;;;;;;10.55;4.80;;;;;;;2.92;98.64;101693.41;5013665;28;20042;-68
2021/10/24 02:57:37;;;;;;;12.70;5.32;;;;;;;2.96;99.22;101692.50;5012801;28;20078;-71
2021/10/24 03:00:09;;;;;;;13.90;5.20;;;;;;;2.92;99.52;101694.28;5013995;28;20448;-70
2021/10/24 03:02:39;;;;;;;13.43;5.47;;;;;;;2.86;100.00;101689.91;5012818;28;20094;-67
2021/10/24 03:05:09;;;;;;;13.00;5.72;;;;;;;2.78;100.00;101696.97;5013357;28;20138;-66
2021/10/24 03:07:38;;;;;;;14.75;6.20;;;;;;;2.77;100.00;101699.63;5013089;28;20042;-67
2021/10/24 03:10:07;;;;;;;12.63;5.53;;;;;;;2.74;100.00;101695.25;5013187;28;20045;-67
2021/10/24 03:12:36;;;;;;;13.98;5.88;;;;;;;2.71;100.00;101703.19;5013585;28;20049;-67
2021/10/24 03:15:06;;;;;;;13.35;5.55;;;;;;;2.72;100.00;101702.31;5013176;28;20050;-70
2021/10/24 03:17:34;;;;;;;11.90;5.22;;;;;;;2.70;100.00;101703.16;5012871;28;20046;-69
2021/10/24 03:20:05;;;;;;;11.27;5.38;;;;;;;2.71;100.00;101719.00;5013138;28;20046;-66
2021/10/24 03:22:34;;;;;;;9.98;5.35;;;;;;;2.91;100.00;101713.63;5016085;28;20451;-67
2021/10/24 03:25:02;;;;;;;11.25;5.50;;;;;;;2.98;100.00;101707.41;5016709;28;20050;-66
2021/10/24 03:27:30;;;;;;;9.70;5.78;;;;;;;2.86;100.00;101718.91;5017023;28;20044;-67
2021/10/24 03:29:59;;;;;;;12.00;6.35;;;;;;;2.74;100.00;101713.69;5016567;28;20072;-66
2021/10/24 03:32:27;;;;;;;14.27;6.00;;;;;;;2.63;100.00;101718.16;5016651;28;20045;-67
2021/10/24 03:34:57;;;;;;;12.18;6.22;;;;;;;2.55;100.00;101719.94;5016254;28;20046;-66
2021/10/24 03:37:27;;;;;;;14.07;6.50;;;;;;;2.59;100.00;101719.03;5016949;28;20125;-66
2021/10/24 03:39:55;;;;;;;13.05;6.10;;;;;;;2.55;100.00;101728.72;5016437;28;20442;-67
2021/10/24 03:42:26;;;;;;;16.63;6.30;;;;;;;2.45;100.00;101728.75;5016677;28;20424;-67
2021/10/24 03:44:54;;;;;;;13.20;5.70;;;;;;;2.35;100.00;101716.50;5015759;28;20054;-66
2021/10/24 03:47:23;;;;;;;15.68;6.25;;;;;;;2.41;100.00;101721.72;5016256;28;20049;-67
2021/10/24 03:49:51;;;;;;;15.32;6.70;;;;;;;2.30;100.00;101727.03;5016200;28;20053;-68
2021/10/24 03:52:19;;;;;;;14.55;6.47;;;;;;;2.24;100.00;101734.97;5016544;28;20046;-66
2021/10/24 03:54:49;;;;;;;13.43;6.28;;;;;;;2.22;100.00;101732.34;4998339;28;20103;-67
2021/10/24 03:57:19;;;;;;;18.10;6.78;;;;;;;2.16;100.00;101732.34;5016738;28;20069;-67
2021/10/24 03:59:47;;;;;;;12.50;6.22;;;;;;;2.29;100.00;101734.06;5016029;28;20478;-67
2021/10/24 04:02:16;;;;;;;12.68;6.20;;;;;;;2.47;100.00;101740.16;5015977;28;20038;-67
2021/10/24 04:04:45;;;;;;;15.15;6.03;;;;;;;2.36;100.00;101747.22;5015941;28;20037;-67
2021/10/24 04:07:13;;;;;;;14.70;6.20;;;;;;;2.27;100.00;101750.75;5015829;28;20050;-68
2021/10/24 04:09:41;;;;;;;13.52;6.68;;;;;;;2.20;100.00;101747.25;5015746;28;20042;-67
2021/10/24 04:12:11;;;;;;;12.40;5.97;;;;;;;2.10;100.00;101749.91;5015818;28;20112;-67
2021/10/24 04:14:41;;;;;;;13.15;6.45;;;;;;;2.08;100.00;101752.53;5016079;28;20205;-74
2021/10/24 04:17:10;;;;;;;11.55;6.13;;;;;;;2.06;100.00;101746.41;5015747;28;20064;-68
2021/10/24 04:19:38;;;;;;;13.70;6.35;;;;;;;1.99;100.00;101750.78;5016045;28;20506;-67
2021/10/24 04:22:06;;;;;;;10.82;6.28;;;;;;;1.99;100.00;101744.66;5015924;28;20048;-68
2021/10/24 04:24:34;;;;;;;13.63;7.05;;;;;;;1.99;100.00;101744.66;5015417;28;20503;-67
2021/10/24 04:27:03;;;;;;;15.82;7.70;;;;;;;2.03;100.00;101745.50;5015188;28;20491;-66
2021/10/24 04:29:33;;;;;;;22.98;8.45;;;;;;;2.00;100.00;101744.63;5015742;28;20041;-67
2021/10/24 04:32:01;;;;;;;18.13;7.90;;;;;;;2.04;100.00;101742.91;5015301;28;20042;-67
2021/10/24 04:34:30;;;;;;;14.60;7.85;;;;;;;2.14;100.00;101749.91;5014922;28;20158;-67
2021/10/24 04:36:58;;;;;;;19.60;8.65;;;;;;;2.26;100.00;101760.41;5015328;28;20121;-66
2021/10/24 04:39:26;;;;;;;17.73;8.75;;;;;;;2.30;100.00;101754.25;5015616;28;20042;-66
2021/10/24 04:41:55;;;;;;;15.98;7.95;;;;;;;2.13;100.00;101766.59;5015124;28;20074;-67
2021/10/24 04:44:23;;;;;;;17.55;7.90;;;;;;;2.06;100.00;101761.31;5015231;28;20076;-66
2021/10/24 04:46:52;;;;;;;14.75;7.45;;;;;;;1.90;100.00;101757.81;5014944;28;20448;-67
2021/10/24 04:49:21;;;;;;;21.23;8.43;;;;;;;2.00;100.00;101749.03;5015120;28;20050;-68
2021/10/24 04:51:49;;;;;;;15.75;8.05;;;;;;;2.39;100.00;101757.72;5015369;28;20096;-67
2021/10/24 04:54:19;;;;;;;18.58;8.63;;;;;;;2.47;100.00;101769.13;5014932;28;20045;-68
2021/10/24 04:56:50;;;;;;;19.92;8.98;;;;;;;2.52;99.83;101767.38;5015030;28;20052;-67
2021/10/24 04:59:18;;;;;;;21.65;9.55;;;;;;;2.31;100.00;101760.38;5015244;28;20061;-67
2021/10/24 05:01:47;;;;;;;21.50;10.60;;;;;;;2.12;100.00;101764.81;5014486;28;20069;-65
2021/10/24 05:04:18;;;;;;;29.00;9.65;;;;;;;2.01;100.00;101756.03;5015192;28;20125;-67
2021/10/24 05:06:47;;;;;;;25.25;10.85;;;;;;;1.87;100.00;101753.44;5014512;28;20038;-67
2021/10/24 05:09:18;;;;;;;19.65;10.40;;;;;;;1.91;100.00;101767.47;5015048;28;20117;-67
2021/10/24 05:11:47;;;;;;;20.20;10.13;;;;;;;1.83;100.00;101774.47;5014704;28;20392;-68
2021/10/24 05:14:15;;;;;;;23.55;10.70;;;;;;;1.77;100.00;101779.75;5014950;28;20042;-67
2021/10/24 05:16:43;;;;;;;23.75;10.93;;;;;;;1.71;100.00;101781.50;5014735;28;20069;-73
2021/10/24 05:19:12;;;;;;;22.70;9.70;;;;;;;1.71;100.00;101781.50;5014804;28;20076;-68
2021/10/24 05:21:45;;;;;;;21.70;8.95;;;;;;;1.66;100.00;101788.53;5014655;28;20125;-74
2021/10/24 05:24:13;;;;;;;23.50;10.32;;;;;;;1.79;100.00;101793.78;5014655;28;20442;-68
2021/10/24 05:26:41;;;;;;;17.85;9.00;;;;;;;2.27;100.00;101796.38;5014626;28;20050;-67
2021/10/24 05:29:09;;;;;;;17.27;8.50;;;;;;;2.07;100.00;101806.06;5014592;28;20134;-68
2021/10/24 05:31:38;;;;;;;17.42;8.68;;;;;;;1.83;100.00;101803.41;5014682;28;20046;-69
2021/10/24 05:34:06;;;;;;;20.73;9.63;;;;;;;1.79;100.00;101805.19;5014286;28;20062;-68
2021/10/24 05:36:35;;;;;;;22.50;10.30;;;;;;;1.83;100.00;101804.28;5014541;28;20135;-68
2021/10/24 05:39:04;;;;;;;18.88;9.75;;;;;;;1.83;100.00;101813.94;5014136;28;20092;-69
2021/10/24 05:41:32;;;;;;;21.77;9.93;;;;;;;1.96;100.00;101815.72;5014465;28;20046;-69
2021/10/24 05:44:00;;;;;;;21.83;10.25;;;;;;;1.97;100.00;101814.84;5013569;28;20518;-68
2021/10/24 05:46:29;;;;;;;21.67;9.95;;;;;;;2.00;100.00;101810.44;5013875;28;20057;-69
2021/10/24 05:48:58;;;;;;;22.08;11.23;;;;;;;2.14;100.00;101825.38;5013688;28;20050;-68
2021/10/24 05:51:26;;;;;;;24.48;11.02;;;;;;;2.14;100.00;101822.75;5014396;28;20068;-69
2021/10/24 05:53:55;;;;;;;24.90;9.88;;;;;;;2.14;100.00;101836.78;5013860;28;20395;-69
2021/10/24 05:56:25;;;;;;;22.27;11.38;;;;;;;2.07;100.00;101845.53;5013855;28;20495;-69
2021/10/24 05:58:53;;;;;;;21.77;10.68;;;;;;;2.00;100.00;101841.16;5013802;28;20088;-69
2021/10/24 06:01:21;;;;;;;24.40;9.48;;;;;;;2.02;100.00;101842.03;5013793;28;20054;-69
2021/10/24 06:03:50;;;;;;;17.67;9.70;;;;;;;2.02;100.00;101852.53;5013687;28;20092;-68
2021/10/24 06:06:18;;;;;;;23.75;10.20;;;;;;;2.08;100.00;101849.06;5013690;28;20506;-69
2021/10/24 06:08:46;;;;;;;21.17;10.23;;;;;;;2.06;100.00;101849.06;5013963;28;20048;-69
2021/10/24 06:11:18;;;;;;;22.65;10.73;;;;;;;2.12;100.00;101854.31;5013587;28;20046;-68
2021/10/24 06:13:49;;;;;;;22.27;9.52;;;;;;;2.19;100.00;101863.97;5013528;28;20053;-69
2021/10/24 06:16:17;;;;;;;18.05;9.07;;;;;;;2.51;100.00;101860.41;5013688;28;20053;-70
2021/10/24 06:18:46;;;;;;;19.48;9.48;;;;;;;2.90;100.00;101863.88;5013415;28;20046;-70
2021/10/24 06:21:14;;;;;;;18.38;8.38;;;;;;;3.05;98.51;101871.72;5013432;28;20100;-70
2021/10/24 06:23:42;;;;;;;20.55;8.73;;;;;;;2.89;99.27;101870.88;5013343;28;20041;-69
2021/10/24 06:26:12;;;;;;;14.88;7.88;;;;;;;2.98;99.53;101878.75;5013429;28;20049;-68
2021/10/24 06:28:41;;;;;;;20.73;9.32;;;;;;;3.09;98.49;101884.03;5013645;28;20145;-68
2021/10/24 06:31:11;;;;;;;16.42;8.40;;;;;;;3.31;97.83;101890.09;5013325;28;20463;-68
2021/10/24 06:33:40;;;;;;;15.20;7.55;;;;;;;3.49;96.07;101892.63;5013668;28;20558;-68
2021/10/24 06:36:08;;;;;;;18.45;8.65;;;;;;;3.56;95.41;101896.97;5013301;28;20400;-69
2021/10/24 06:38:36;;;;;;;13.82;8.27;;;;;;;3.40;96.11;101903.22;5013198;28;20046;-68
2021/10/24 06:41:05;;;;;;;17.48;8.63;;;;;;;3.27;97.38;101899.75;5013074;28;20419;-68
2021/10/24 06:43:33;;;;;;;16.65;8.82;;;;;;;3.20;98.67;101905.06;5013118;28;20050;-69
2021/10/24 06:46:01;;;;;;;17.83;8.90;;;;;;;3.27;98.87;101912.06;5013269;28;20137;-68
2021/10/24 06:48:31;;;;;;;17.65;8.82;;;;;;;3.49;97.57;101915.50;5013521;28;20038;-67
2021/10/24 06:50:59;;;;;;;16.20;8.10;;;;;;;3.60;96.49;101913.69;5013015;28;20046;-70
2021/10/24 06:53:27;;;;;;;12.82;6.53;;;;;;;3.70;94.92;101916.25;5013529;28;20061;-68
2021/10/24 06:55:55;;;;;;;14.90;6.60;;;;;;;3.94;93.07;101922.28;5014716;28;20045;-67
2021/10/24 06:58:24;;;;;;;16.13;7.97;;;;;;;3.83;93.51;101921.47;5019505;28;20050;-68
2021/10/24 07:00:52;;;;;;;15.20;7.22;;;;;;;3.81;94.19;101932.03;5019424;28;20088;-68
2021/10/24 07:03:21;;;;;;;17.15;8.00;;;;;;;4.09;92.11;101935.38;5019381;28;20472;-67
2021/10/24 07:05:50;;;;;;;15.43;7.85;;;;;;;4.19;91.71;101928.28;5019716;28;20042;-69
2021/10/24 07:08:19;;;;;;;14.00;7.75;;;;;;;4.10;90.95;101928.34;5019647;28;20100;-68
2021/10/24 07:10:47;;;;;;;17.17;8.43;;;;;;;3.99;91.83;101924.00;5019527;28;20045;-69
2021/10/24 07:13:15;;;;;;;19.40;7.88;;;;;;;3.88;91.98;101923.22;5019519;28;20112;-69
2021/10/24 07:15:43;;;;;;;16.15;7.50;;;;;;;3.86;92.49;101930.25;5019594;28;20072;-69
2021/10/24 07:18:12;;;;;;;14.05;7.63;;;;;;;4.02;92.18;101939.81;5019379;28;20148;-69
2021/10/24 07:20:40;;;;;;;16.65;7.88;;;;;;;4.24;91.14;101937.03;5019733;28;20038;-70
2021/10/24 07:23:10;;;;;;;14.95;7.65;;;;;;;4.32;89.91;101929.94;5018862;28;20479;-69
2021/10/24 07:25:38;;;;;;;15.18;8.10;;;;;;;4.28;90.46;101929.09;5019350;28;20077;-69
2021/10/24 07:28:06;;;;;;;15.50;7.70;;;;;;;4.35;89.96;101940.50;5019257;28;20053;-65
2021/10/24 07:30:35;;;;;;;9.32;5.78;;;;;;;4.34;89.39;101945.75;5002012;28;20100;-63
2021/10/24 07:33:03;;;;;;;17.85;7.35;;;;;;;4.36;90.17;101950.16;5020244;28;20045;-62
2021/10/24 07:35:32;;;;;;;12.95;5.93;;;;;;;4.54;87.89;101959.72;5019477;28;20057;-65
2021/10/24 07:38:04;;;;;;;13.15;6.18;;;;;;;4.55;88.21;101958.84;5019889;28;20048;-65
2021/10/24 07:40:34;;;;;;;13.98;6.82;;;;;;;4.86;86.60;101959.44;5020463;28;20054;-66
2021/10/24 07:43:04;;;;;;;14.50;6.85;;;;;;;4.86;86.83;101956.78;5012524;28;20050;-70
2021/10/24 07:45:32;;;;;;;14.55;7.15;;;;;;;5.23;84.29;101959.06;4999277;28;20419;-70
2021/10/24 07:48:00;;;;;;;12.20;5.88;;;;;;;5.17;83.78;101960.88;4998425;28;20415;-75
2021/10/24 07:50:30;;;;;;;13.43;6.93;;;;;;;5.04;85.11;101959.25;4998447;28;20781;-71
2021/10/24 07:52:59;;;;;;;15.50;7.50;;;;;;;5.12;84.60;101961.81;4998912;28;20411;-68
2021/10/24 07:55:27;;;;;;;16.42;7.72;;;;;;;5.17;84.48;101952.94;4999066;28;20038;-68
2021/10/24 07:57:57;;;;;;;12.95;7.68;;;;;;;5.19;85.15;101952.91;4998737;28;20046;-68
2021/10/24 08:00:30;;;;;;;17.27;7.65;;;;;;;5.28;83.79;101958.09;4998853;28;20046;-67
2021/10/24 08:02:59;;;;;;;13.95;7.45;;;;;;;5.25;83.71;101951.97;4998795;28;20047;-69
2021/10/24 08:05:27;;;;;;;14.75;7.10;;;;;;;5.38;83.11;101959.75;4998171;28;20061;-68
2021/10/24 08:07:59;;;;;;;15.73;7.30;;;;;;;5.34;83.90;101957.16;4996524;28;20057;-72
2021/10/24 08:10:27;;;;;;;13.93;7.10;;;;;;;5.54;82.85;101955.16;4995497;28;20050;-69
2021/10/24 08:12:59;;;;;;;12.93;6.97;;;;;;;5.58;82.56;101951.56;4995438;28;20042;-65
2021/10/24 08:15:28;;;;;;;14.43;6.70;;;;;;;5.62;82.54;101950.66;4995001;28;20047;-66
2021/10/24 08:17:56;;;;;;;13.13;6.68;;;;;;;5.54;82.61;101955.16;4996008;28;20074;-65
2021/10/24 08:20:24;;;;;;;12.15;7.13;;;;;;;5.54;82.81;101959.56;4996044;28;20047;-65
2021/10/24 08:22:53;;;;;;;12.18;6.25;;;;;;;5.72;81.00;101965.50;4996227;28;20440;-65
2021/10/24 08:25:23;;;;;;;12.82;6.60;;;;;;;5.75;80.27;101954.88;5004173;28;20072;-67
2021/10/24 08:27:53;;;;;;;11.30;6.18;;;;;;;6.20;78.58;101963.13;5015727;28;20477;-67
2021/10/24 08:30:23;;;;;;;11.05;5.55;;;;;;;6.26;76.90;101962.13;5015215;28;20046;-72
2021/10/24 08:32:52;;;;;;;15.27;6.35;;;;;;;6.46;76.37;101965.34;5014423;28;20052;-71
2021/10/24 08:35:22;;;;;;;11.73;5.85;;;;;;;6.41;75.91;101968.97;5014663;28;20049;-70
2021/10/24 08:37:52;;;;;;;9.45;5.28;;;;;;;6.55;75.48;101969.63;5014841;28;20475;-71
2021/10/24 08:40:21;;;;;;;12.10;6.40;;;;;;;6.64;75.29;101974.78;5014217;28;20654;-69
2021/10/24 08:42:57;;;;;;;11.27;5.93;;;;;;;6.52;75.60;101962.59;5013916;28;20546;-72
2021/10/24 08:45:27;;;;;;;14.10;5.85;;;;;;;6.60;74.67;101959.81;4996370;28;20115;-71
2021/10/24 08:47:57;;;;;;;12.27;5.75;;;;;;;6.92;72.48;101967.22;5014108;28;20466;-70
2021/10/24 08:50:25;;;;;;;13.43;5.57;;;;;;;6.73;73.71;101969.31;5013706;28;20049;-71
2021/10/24 08:52:56;;;;;;;9.60;5.45;;;;;;;6.81;73.80;101975.38;5014235;28;20061;-70
2021/10/24 08:55:24;;;;;;;9.30;5.38;;;;;;;6.98;72.90;101969.78;5022726;28;20517;-70
2021/10/24 08:57:53;;;;;;;7.63;4.65;;;;;;;7.19;71.83;101971.16;5034413;28;20091;-71
2021/10/24 09:00:42;;;;;;;10.52;4.72;;;;;;;7.49;69.66;101955.53;5033959;28;20200;-72
2021/10/24 09:03:11;;;;;;;12.05;5.03;;;;;;;7.29;70.41;101951.50;5034083;28;20053;-70
2021/10/24 09:05:41;;;;;;;9.30;4.65;;;;;;;7.30;70.39;101955.00;5034053;28;20041;-68
2021/10/24 09:08:12;;;;;;;10.35;4.72;;;;;;;7.39;69.42;101954.84;5034282;28;20042;-68
2021/10/24 09:10:45;;;;;;;13.15;5.45;;;;;;;7.46;70.00;101956.47;5034185;28;20045;-68
2021/10/24 09:13:15;;;;;;;12.98;5.53;;;;;;;7.53;70.07;101960.75;5033889;28;20552;-68
2021/10/24 09:15:54;;;;;;;14.07;5.38;;;;;;;7.45;70.44;101955.59;5034551;28;20068;-67
2021/10/24 09:18:29;;;;;;;9.20;4.55;;;;;;;7.45;70.66;101954.72;5033857;28;20049;-67
2021/10/24 09:20:58;;;;;;;9.02;4.38;;;;;;;7.49;69.98;101952.88;5034420;28;20441;-67
2021/10/24 09:23:32;;;;;;;8.10;4.47;;;;;;;7.53;69.28;101954.53;5033366;28;20045;-68
2021/10/24 09:26:01;;;;;;;10.35;4.20;;;;;;;7.56;68.78;101954.50;5033617;28;20079;-68
2021/10/24 09:28:30;;;;;;;15.63;4.57;;;;;;;7.52;69.72;101955.44;5033997;28;20132;-67
2021/10/24 09:31:02;;;;;;;8.40;4.00;;;;;;;7.61;69.32;101950.81;5034242;28;20072;-67
2021/10/24 09:33:44;;;;;;;13.02;4.10;;;;;;;7.77;69.10;101954.03;5033961;28;20041;-68
2021/10/24 09:36:15;;;;;;;13.25;3.50;;;;;;;7.89;67.59;101950.22;5034449;28;20154;-67
2021/10/24 09:38:44;;;;;;;10.18;3.17;;;;;;;7.94;67.13;101957.22;5034595;28;20057;-67
2021/10/24 09:41:12;;;;;;;10.75;3.80;;;;;;;7.99;67.14;101954.44;5034034;28;20048;-67
2021/10/24 09:43:42;;;;;;;8.18;3.75;;;;;;;8.11;66.89;101955.97;5034019;28;20067;-67
2021/10/24 09:46:15;;;;;;;11.55;3.45;;;;;;;8.10;66.82;101955.06;5016281;28;20442;-68
2021/10/24 09:48:46;;;;;;;15.48;3.67;;;;;;;8.09;67.13;101942.69;5033905;28;20499;-68
2021/10/24 09:51:20;;;;;;;7.28;3.47;;;;;;;8.08;67.02;101946.25;5033737;28;20041;-72
2021/10/24 09:53:51;;;;;;;8.70;3.15;;;;;;;8.42;65.77;101946.38;5033961;28;20045;-67
2021/10/24 09:56:21;;;;;;;9.18;3.60;;;;;;;8.42;65.27;101938.41;5033620;28;20037;-68
2021/10/24 09:58:51;;;;;;;9.30;3.95;;;;;;;8.56;64.68;101949.56;5034056;28;20099;-68
2021/10/24 10:01:22;;;;;;;10.00;3.72;;;;;;;8.53;64.54;101938.13;5033637;28;20103;-68
2021/10/24 10:03:51;;;;;;;9.95;3.60;;;;;;;8.72;63.46;101941.22;5033841;28;20487;-67
2021/10/24 10:06:20;;;;;;;7.97;3.50;;;;;;;8.88;62.70;101950.56;5033436;28;20049;-66
2021/10/24 10:08:48;;;;;;;8.07;4.07;;;;;;;8.82;62.88;101945.38;5033820;28;20431;-67
2021/10/24 10:11:24;;;;;;;8.98;4.05;;;;;;;8.69;63.14;101936.84;5033257;28;20053;-68
2021/10/24 10:13:58;;;;;;;10.70;4.65;;;;;;;8.71;63.45;101926.16;5033812;28;20038;-67
2021/10/24 10:16:36;;;;;;;11.00;4.20;;;;;;;8.78;63.00;101927.72;5033157;28;20103;-66
2021/10/24 10:19:07;;;;;;;9.13;3.95;;;;;;;8.93;62.27;101930.00;5033523;28;20047;-67
2021/10/24 10:21:37;;;;;;;10.63;4.53;;;;;;;8.79;62.85;101926.84;5033063;28;20049;-67
2021/10/24 10:24:08;;;;;;;10.65;4.57;;;;;;;8.86;62.18;101925.75;5035227;28;20073;-69
2021/10/24 10:26:41;;;;;;;9.00;4.35;;;;;;;9.02;62.64;101927.09;5032705;28;20042;-67
2021/10/24 10:29:11;;;;;;;11.15;4.90;;;;;;;9.10;61.21;101930.41;5033337;28;20471;-68
2021/10/24 10:31:42;;;;;;;9.32;4.45;;;;;;;9.12;60.51;101922.38;5008090;28;20042;-69
2021/10/24 10:34:12;;;;;;;9.52;4.55;;;;;;;8.98;60.97;101925.44;4993164;28;20046;-68
2021/10/24 10:36:57;;;;;;;8.48;4.20;;;;;;;8.96;61.24;101932.56;4992718;28;20104;-67
2021/10/24 10:39:42;;;;;;;9.60;3.92;;;;;;;8.95;60.97;101930.81;4992734;28;20464;-69
2021/10/24 10:42:56;;;;;;;10.55;4.30;;;;;;;9.12;60.29;101928.56;4992862;28;20149;-71
2021/10/24 10:45:37;;;;;;;;;;;;;;;9.30;59.26;101921.00;4992765;28;20058;-67
2021/10/24 10:48:08;;;;;;;10.75;3.65;;;;;;;9.04;59.09;101927.91;4992163;28;20020;-67
2021/10/24 10:50:47;;;;;;;11.13;3.35;;;;;;;8.89;59.40;101920.34;4992153;28;20046;-65
2021/10/24 10:53:52;;;;;;;6.90;2.90;;;;;;;9.20;58.99;101914.19;4992761;28;20107;-64
2021/10/24 10:56:24;;;;;;;12.60;3.53;;;;;;;9.25;59.30;101917.59;4913740;29;20486;-64
2021/10/24 10:58:56;;;;;;;11.27;3.95;;;;;;;9.18;59.73;101917.78;4913547;29;20104;-64
2021/10/24 11:01:34;;;;;;;8.05;3.22;;;;;;;9.33;57.63;101910.25;4966427;28;20083;-66
2021/10/24 11:04:22;;;;;;;6.07;2.25;;;;;;;9.30;57.64;101910.34;5012497;28;20057;-69
2021/10/24 11:06:56;;;;;;;8.02;2.70;;;;;;;9.27;56.34;101908.66;5011644;28;20038;-68
2021/10/24 11:09:48;;;;;;;6.53;2.70;;;;;;;9.29;55.84;101913.94;5012461;28;20132;-71
2021/10/24 11:12:51;;;;;;;10.70;3.05;;;;;;;9.17;56.13;101910.72;5011867;28;20046;-69
2021/10/24 11:15:29;;;;;;;7.97;2.88;;;;;;;9.25;57.74;101912.25;5012264;28;20096;-68
2021/10/24 11:18:01;;;;;;;5.20;2.47;;;;;;;9.29;57.57;101913.94;5011973;28;20048;-66
2021/10/24 11:20:43;;;;;;;7.82;2.88;;;;;;;9.32;57.27;101909.38;5011662;28;20053;-68
2021/10/24 11:23:17;;;;;;;8.57;2.80;;;;;;;9.37;56.84;101917.25;5012338;28;20088;-67
2021/10/24 11:25:53;;;;;;;8.13;3.00;;;;;;;9.39;56.08;101915.41;5011527;28;20446;-69
2021/10/24 11:28:28;;;;;;;6.93;3.13;;;;;;;9.23;55.28;101909.63;5012184;28;20066;-70
2021/10/24 11:31:01;;;;;;;7.60;2.20;;;;;;;9.10;55.89;101909.13;5011353;28;20383;-68
2021/10/24 11:33:44;;;;;;;9.20;2.60;;;;;;;8.98;56.84;101909.47;5012125;28;20046;-76
2021/10/24 11:36:25;;;;;;;6.53;2.60;;;;;;;9.17;55.61;101902.72;5014151;28;20076;-68
2021/10/24 11:38:57;;;;;;;9.40;2.65;;;;;;;9.28;54.81;101906.88;5011377;28;20530;-72